createdAt,value
2018-05-13T00:00:05.537Z,49.80
2018-05-13T00:02:33.204Z,51.10
2018-05-13T00:05:00.984Z,51.60
2018-05-13T00:07:28.758Z,51.20
2018-05-13T00:09:56.534Z,50.10
2018-05-13T00:12:24.235Z,51.10
2018-05-13T00:14:51.996Z,50.80
2018-05-13T00:17:19.761Z,51.30
2018-05-13T00:19:47.537Z,50.00
2018-05-13T00:22:15.313Z,51.50
2018-05-13T00:24:43.098Z,52.50
2018-05-13T00:27:10.789Z,51.80
2018-05-13T00:29:38.749Z,50.30
2018-05-13T00:32:06.377Z,51.60
2018-05-13T00:34:34.828Z,52.70
2018-05-13T00:37:02.616Z,52.70
2018-05-13T00:39:30.280Z,51.60
2018-05-13T00:41:58.061Z,51.00
2018-05-13T00:44:25.737Z,52.20
2018-05-13T00:46:53.487Z,51.30
2018-05-13T00:49:21.268Z,51.20
2018-05-13T00:51:49.039Z,50.80
2018-05-13T00:54:28.801Z,50.80
2018-05-13T00:56:56.499Z,50.70
2018-05-13T00:59:24.165Z,51.60
2018-05-13T01:01:51.919Z,50.90
2018-05-13T01:04:19.620Z,51.80
2018-05-13T01:06:47.473Z,52.00
2018-05-13T01:09:15.248Z,52.10
2018-05-13T01:11:42.951Z,52.20
2018-05-13T01:14:10.701Z,52.00
2018-05-13T01:16:38.577Z,52.10
2018-05-13T01:19:06.277Z,51.90
2018-05-13T01:21:34.053Z,51.90
2018-05-13T01:24:01.717Z,51.90
2018-05-13T01:26:29.401Z,51.80
2018-05-13T01:28:57.072Z,51.90
2018-05-13T01:31:24.745Z,51.80
2018-05-13T01:33:52.521Z,52.00
2018-05-13T01:36:20.153Z,51.80
2018-05-13T01:38:47.847Z,52.00
2018-05-13T01:41:15.545Z,52.50
2018-05-13T01:43:43.401Z,52.30
2018-05-13T01:46:11.077Z,52.70
2018-05-13T01:48:38.766Z,52.30
2018-05-13T01:51:06.414Z,53.20
2018-05-13T01:53:34.196Z,53.10
2018-05-13T01:56:01.973Z,52.90
2018-05-13T01:58:29.749Z,53.00
2018-05-13T02:00:57.525Z,52.80
2018-05-13T02:03:25.301Z,52.70
2018-05-13T02:05:52.978Z,52.80
2018-05-13T02:08:20.752Z,52.80
2018-05-13T02:10:48.449Z,52.80
2018-05-13T02:13:16.202Z,52.80
2018-05-13T02:15:43.980Z,53.00
2018-05-13T02:18:11.680Z,52.90
2018-05-13T02:20:39.548Z,53.60
2018-05-13T02:23:07.231Z,53.60
2018-05-13T02:25:35.012Z,53.70
2018-05-13T02:28:02.684Z,53.50
2018-05-13T02:30:30.362Z,53.30
2018-05-13T02:32:58.107Z,53.60
2018-05-13T02:35:25.886Z,53.60
2018-05-13T02:37:53.581Z,53.60
2018-05-13T02:40:21.362Z,53.70
2018-05-13T02:42:49.112Z,53.70
2018-05-13T02:45:17.094Z,53.60
2018-05-13T02:47:44.797Z,53.60
2018-05-13T02:50:12.542Z,53.60
2018-05-13T02:52:40.320Z,54.90
2018-05-13T02:55:08.013Z,54.90
2018-05-13T02:57:35.681Z,54.90
2018-05-13T03:00:03.444Z,55.00
2018-05-13T03:02:31.241Z,55.10
2018-05-13T03:04:58.910Z,54.90
2018-05-13T03:07:26.784Z,54.90
2018-05-13T03:09:54.479Z,54.70
2018-05-13T03:12:22.220Z,54.70
2018-05-13T03:14:49.917Z,54.80
2018-05-13T03:17:17.693Z,54.80
2018-05-13T03:19:45.447Z,54.80
2018-05-13T03:22:13.224Z,55.00
2018-05-13T03:24:41.000Z,54.90
2018-05-13T03:27:08.692Z,55.30
2018-05-13T03:29:36.347Z,56.40
2018-05-13T03:32:04.121Z,56.50
2018-05-13T03:34:31.825Z,55.80
2018-05-13T03:36:59.578Z,55.60
2018-05-13T03:39:27.357Z,57.30
2018-05-13T03:41:54.996Z,56.20
2018-05-13T03:44:23.624Z,56.30
2018-05-13T03:46:51.323Z,56.30
2018-05-13T03:49:19.101Z,59.20
2018-05-13T03:51:46.850Z,62.70
2018-05-13T03:54:14.549Z,63.90
2018-05-13T03:56:42.223Z,66.40
2018-05-13T03:59:10.008Z,70.60
2018-05-13T04:01:37.749Z,81.70
2018-05-13T04:04:05.466Z,84.10
2018-05-13T04:06:33.118Z,90.50
2018-05-13T04:09:12.858Z,90.30
2018-05-13T04:11:52.409Z,90.90
2018-05-13T04:14:32.169Z,91.30
2018-05-13T04:16:59.865Z,92.70
2018-05-13T04:19:27.528Z,91.40
2018-05-13T04:21:55.297Z,94.70
2018-05-13T04:24:23.068Z,95.10
2018-05-13T04:26:50.772Z,94.50
2018-05-13T04:29:18.521Z,95.40
2018-05-13T04:31:46.294Z,94.00
2018-05-13T04:34:13.997Z,94.10
2018-05-13T04:36:41.847Z,93.50
2018-05-13T04:39:09.623Z,94.10
2018-05-13T04:41:37.370Z,94.60
2018-05-13T04:44:05.916Z,93.20
2018-05-13T04:46:33.768Z,93.10
2018-05-13T04:49:01.447Z,91.70
2018-05-13T04:51:29.233Z,93.90
2018-05-13T04:53:57.000Z,93.70
2018-05-13T04:56:24.775Z,93.70
2018-05-13T04:58:52.471Z,93.60
2018-05-13T05:01:20.325Z,94.00
2018-05-13T05:03:48.101Z,92.90
2018-05-13T05:06:15.984Z,90.80
2018-05-13T05:08:43.657Z,94.40
2018-05-13T05:11:11.431Z,95.10
2018-05-13T05:13:39.248Z,94.70
2018-05-13T05:16:06.981Z,93.90
2018-05-13T05:18:34.758Z,94.30
2018-05-13T05:21:02.453Z,91.80
2018-05-13T05:23:30.310Z,93.10
2018-05-13T05:25:57.948Z,93.10
2018-05-13T05:28:26.478Z,93.30
2018-05-13T05:30:54.254Z,93.20
2018-05-13T05:33:21.961Z,92.90
2018-05-13T05:35:49.794Z,92.90
2018-05-13T05:38:17.585Z,92.70
2018-05-13T05:40:45.292Z,92.20
2018-05-13T05:43:13.139Z,89.90
2018-05-13T05:45:40.841Z,93.20
2018-05-13T05:48:08.616Z,90.00
2018-05-13T05:50:36.364Z,91.70
2018-05-13T05:53:04.061Z,89.70
2018-05-13T05:55:31.841Z,86.50
2018-05-13T05:57:59.615Z,90.70
2018-05-13T06:00:27.245Z,88.70
2018-05-13T06:02:54.939Z,91.70
2018-05-13T06:05:22.714Z,92.10
2018-05-13T06:07:50.413Z,84.50
2018-05-13T06:10:18.267Z,81.30
2018-05-13T06:12:46.109Z,80.70
2018-05-13T06:15:14.641Z,86.90
2018-05-13T06:17:42.341Z,86.80
2018-05-13T06:20:10.112Z,83.60
2018-05-13T06:22:37.864Z,87.20
2018-05-13T06:25:05.567Z,88.00
2018-05-13T06:27:34.054Z,83.00
2018-05-13T06:30:01.835Z,83.20
2018-05-13T06:32:29.610Z,82.50
2018-05-13T06:34:57.361Z,84.30
2018-05-13T06:37:25.137Z,78.80
2018-05-13T06:39:52.837Z,76.00
2018-05-13T06:42:20.587Z,85.30
2018-05-13T06:44:48.366Z,84.50
2018-05-13T06:47:16.008Z,79.10
2018-05-13T06:49:43.641Z,75.00
2018-05-13T06:52:11.488Z,72.30
2018-05-13T06:54:39.149Z,67.30
2018-05-13T06:57:06.865Z,67.20
2018-05-13T06:59:34.610Z,67.80
2018-05-13T07:02:02.387Z,70.00
2018-05-13T07:04:30.021Z,68.40
2018-05-13T07:06:58.469Z,67.80
2018-05-13T07:09:26.108Z,67.70
2018-05-13T07:11:53.821Z,62.40
2018-05-13T07:14:21.496Z,60.50
2018-05-13T07:16:49.250Z,59.70
2018-05-13T07:19:17.129Z,58.80
2018-05-13T07:21:44.905Z,56.00
2018-05-13T07:24:12.605Z,55.60
2018-05-13T07:26:40.458Z,56.30
2018-05-13T07:29:08.130Z,57.20
2018-05-13T07:31:35.906Z,58.50
2018-05-13T07:34:03.682Z,57.60
2018-05-13T07:36:31.486Z,56.20
2018-05-13T07:38:59.188Z,56.50
2018-05-13T07:41:27.626Z,59.10
2018-05-13T07:43:55.309Z,59.00
2018-05-13T07:46:23.078Z,59.10
2018-05-13T07:48:50.853Z,60.30
2018-05-13T07:51:18.629Z,60.40
2018-05-13T07:53:46.406Z,60.40
2018-05-13T07:56:14.053Z,59.50
2018-05-13T07:58:41.858Z,58.30
2018-05-13T08:01:09.557Z,58.50
2018-05-13T08:03:37.230Z,58.60
2018-05-13T08:06:04.909Z,60.40
2018-05-13T08:08:32.686Z,59.20
2018-05-13T08:11:00.429Z,59.00
2018-05-13T08:13:28.126Z,57.70
2018-05-13T08:15:55.802Z,59.90
2018-05-13T08:18:23.577Z,59.80
2018-05-13T08:20:51.253Z,61.00
2018-05-13T08:23:19.106Z,61.50
2018-05-13T08:25:46.732Z,61.50
2018-05-13T08:28:15.273Z,60.70
2018-05-13T08:30:42.978Z,60.10
2018-05-13T08:33:11.442Z,60.40
2018-05-13T08:35:39.326Z,61.00
2018-05-13T08:38:07.014Z,62.30
2018-05-13T08:40:34.771Z,64.90
2018-05-13T08:43:02.442Z,63.80
2018-05-13T08:45:30.218Z,62.20
2018-05-13T08:47:57.917Z,64.20
2018-05-13T08:50:25.668Z,66.60
2018-05-13T08:52:53.365Z,65.00
2018-05-13T08:55:21.221Z,64.70
2018-05-13T08:57:48.925Z,65.30
2018-05-13T09:00:16.774Z,67.30
2018-05-13T09:02:44.552Z,66.20
2018-05-13T09:05:12.271Z,66.40
2018-05-13T09:07:40.853Z,66.70
2018-05-13T09:10:08.491Z,66.70
2018-05-13T09:12:36.152Z,68.70
2018-05-13T09:15:03.968Z,66.00
2018-05-13T09:17:31.671Z,65.40
2018-05-13T09:20:00.133Z,71.40
2018-05-13T09:22:27.833Z,71.30
2018-05-13T09:24:55.486Z,72.00
2018-05-13T09:27:23.338Z,73.00
2018-05-13T09:29:51.525Z,74.80
2018-05-13T09:32:19.332Z,76.00
2018-05-13T09:34:47.075Z,74.70
2018-05-13T09:37:14.853Z,75.10
2018-05-13T09:39:42.629Z,73.30
2018-05-13T09:42:10.516Z,74.60
2018-05-13T09:44:38.281Z,74.20
2018-05-13T09:47:05.956Z,75.00
2018-05-13T09:49:33.735Z,76.50
2018-05-13T09:52:01.433Z,76.20
2018-05-13T09:54:29.284Z,77.70
2018-05-13T09:56:57.061Z,77.90
2018-05-13T09:59:24.940Z,76.00
2018-05-13T10:01:52.594Z,78.00
2018-05-13T10:04:20.309Z,78.70
2018-05-13T10:06:48.064Z,75.50
2018-05-13T10:09:15.761Z,77.30
2018-05-13T10:11:43.517Z,76.00
2018-05-13T10:14:11.394Z,77.30
2018-05-13T10:16:39.089Z,76.40
2018-05-13T10:19:06.865Z,78.00
2018-05-13T10:21:34.617Z,78.40
2018-05-13T10:24:02.394Z,80.30
2018-05-13T10:26:30.094Z,78.60
2018-05-13T10:28:57.845Z,80.60
2018-05-13T10:31:25.619Z,81.20
2018-05-13T10:33:53.308Z,79.70
2018-05-13T10:36:21.108Z,81.10
2018-05-13T10:38:48.946Z,83.90
2018-05-13T10:41:16.629Z,84.50
2018-05-13T10:43:44.322Z,87.40
2018-05-13T10:46:12.009Z,82.40
2018-05-13T10:48:39.645Z,81.80
2018-05-13T10:51:08.984Z,83.40
2018-05-13T10:53:36.732Z,83.50
2018-05-13T10:56:04.611Z,83.20
2018-05-13T10:58:32.388Z,83.60
2018-05-13T11:01:00.165Z,84.00
2018-05-13T11:03:27.940Z,82.90
2018-05-13T11:05:55.717Z,81.00
2018-05-13T11:08:23.493Z,78.90
2018-05-13T11:10:51.267Z,79.90
2018-05-13T11:13:19.043Z,80.40
2018-05-13T11:15:46.750Z,82.60
2018-05-13T11:18:14.528Z,83.90
2018-05-13T11:20:42.282Z,84.80
2018-05-13T11:23:10.153Z,80.70
2018-05-13T11:25:37.927Z,80.00
2018-05-13T11:28:05.600Z,79.60
2018-05-13T11:30:33.302Z,81.50
2018-05-13T11:33:00.982Z,82.40
2018-05-13T11:35:28.721Z,82.40
2018-05-13T11:37:56.500Z,81.30
2018-05-13T11:40:24.223Z,81.70
2018-05-13T11:42:52.769Z,81.50
2018-05-13T11:45:20.405Z,81.40
2018-05-13T11:47:48.964Z,82.00
2018-05-13T11:50:16.635Z,82.00
2018-05-13T11:52:44.493Z,82.70
2018-05-13T11:55:12.292Z,83.80
2018-05-13T11:57:40.144Z,83.50
2018-05-13T12:00:07.847Z,83.90
2018-05-13T12:02:35.593Z,81.10
2018-05-13T12:05:03.576Z,84.60
2018-05-13T12:07:31.276Z,84.20
2018-05-13T12:09:59.176Z,80.80
2018-05-13T12:12:27.004Z,79.80
2018-05-13T12:14:54.807Z,80.40
2018-05-13T12:17:22.559Z,80.00
2018-05-13T12:19:50.253Z,83.40
2018-05-13T12:22:17.888Z,83.90
2018-05-13T12:24:45.712Z,87.60
2018-05-13T12:27:13.357Z,92.30
2018-05-13T12:29:41.234Z,93.50
2018-05-13T12:32:08.933Z,94.40
2018-05-13T12:34:36.686Z,95.40
2018-05-13T12:37:04.564Z,94.40
2018-05-13T12:39:32.253Z,94.50
2018-05-13T12:42:00.011Z,93.40
2018-05-13T12:44:27.889Z,93.70
2018-05-13T12:46:55.666Z,95.60
2018-05-13T12:49:23.442Z,96.30
2018-05-13T12:51:51.221Z,94.90
2018-05-13T12:54:18.895Z,94.90
2018-05-13T12:56:46.568Z,95.90
2018-05-13T12:59:14.264Z,93.20
2018-05-13T13:01:42.062Z,97.30
2018-05-13T13:04:10.613Z,93.70
2018-05-13T13:06:38.390Z,93.70
2018-05-13T13:09:06.099Z,92.70
2018-05-13T13:11:33.796Z,94.80
2018-05-13T13:14:02.253Z,95.40
2018-05-13T13:16:29.913Z,95.40
2018-05-13T13:18:57.519Z,94.90
2018-05-13T13:21:25.257Z,95.40
2018-05-13T13:23:52.868Z,93.30
2018-05-13T13:26:20.520Z,92.80
2018-05-13T13:28:48.140Z,95.40
2018-05-13T13:31:15.804Z,94.10
2018-05-13T13:33:44.206Z,94.70
2018-05-13T13:36:11.825Z,94.50
2018-05-13T13:38:39.473Z,93.40
2018-05-13T13:41:07.101Z,94.70
2018-05-13T13:43:35.522Z,93.90
2018-05-13T13:46:03.145Z,94.10
2018-05-13T13:48:30.792Z,91.50
2018-05-13T13:50:58.428Z,92.40
2018-05-13T13:53:26.169Z,90.80
2018-05-13T13:55:53.811Z,91.10
2018-05-13T13:58:21.458Z,92.00
2018-05-13T14:00:49.096Z,92.20
2018-05-13T14:03:16.928Z,92.20
2018-05-13T14:05:44.542Z,93.00
2018-05-13T14:08:13.723Z,93.00
2018-05-13T14:10:41.344Z,92.80
2018-05-13T14:13:09.749Z,91.80
2018-05-13T14:15:37.375Z,91.70
2018-05-13T14:18:05.035Z,92.70
2018-05-13T14:20:32.703Z,92.40
2018-05-13T14:23:00.356Z,91.20
2018-05-13T14:25:28.032Z,92.00
2018-05-13T14:27:55.674Z,91.70
2018-05-13T14:30:24.049Z,92.10
2018-05-13T14:32:51.793Z,92.10
2018-05-13T14:35:19.461Z,91.30
2018-05-13T14:37:47.075Z,92.00
2018-05-13T14:40:15.500Z,93.30
2018-05-13T14:42:43.125Z,93.30
2018-05-13T14:45:10.830Z,92.40
2018-05-13T14:47:38.428Z,91.10
2018-05-13T14:50:06.063Z,92.00
2018-05-13T14:52:34.444Z,90.70
2018-05-13T14:55:02.094Z,90.60
2018-05-13T14:57:29.712Z,91.00
2018-05-13T14:59:57.381Z,92.00
2018-05-13T15:02:25.757Z,90.40
2018-05-13T15:04:54.212Z,91.40
2018-05-13T15:07:30.656Z,91.50
2018-05-13T15:09:58.316Z,91.60
2018-05-13T15:12:26.753Z,90.90
2018-05-13T15:14:54.393Z,90.90
2018-05-13T15:17:22.085Z,90.10
2018-05-13T15:19:49.740Z,90.90
2018-05-13T15:22:17.375Z,91.30
2018-05-13T15:24:45.029Z,90.00
2018-05-13T15:27:12.692Z,90.20
2018-05-13T15:29:40.306Z,89.30
2018-05-13T15:32:08.720Z,91.20
2018-05-13T15:34:36.328Z,90.90
2018-05-13T15:37:03.981Z,91.90
2018-05-13T15:39:31.605Z,91.00
2018-05-13T15:41:59.277Z,90.30
2018-05-13T15:44:26.893Z,90.60
2018-05-13T15:46:54.581Z,90.40
2018-05-13T15:49:22.200Z,90.10
2018-05-13T15:51:49.858Z,90.80
2018-05-13T15:54:17.481Z,90.00
2018-05-13T15:56:45.197Z,90.20
2018-05-13T15:59:12.838Z,89.50
2018-05-13T16:01:40.488Z,90.00
2018-05-13T16:04:08.868Z,91.10
2018-05-13T16:06:36.536Z,91.10
2018-05-13T16:09:05.820Z,90.80
2018-05-13T16:11:33.676Z,90.70
2018-05-13T16:14:01.305Z,89.90
2018-05-13T16:16:29.686Z,91.00
2018-05-13T16:18:57.346Z,91.00
2018-05-13T16:21:24.971Z,90.90
2018-05-13T16:23:52.622Z,88.90
2018-05-13T16:26:20.261Z,90.00
2018-05-13T16:28:48.010Z,90.50
2018-05-13T16:31:15.637Z,90.40
2018-05-13T16:33:44.083Z,90.30
2018-05-13T16:36:11.728Z,90.60
2018-05-13T16:38:39.368Z,91.30
2018-05-13T16:41:08.527Z,91.60
2018-05-13T16:43:36.175Z,91.50
2018-05-13T16:46:04.579Z,90.60
2018-05-13T16:48:32.243Z,90.60
2018-05-13T16:50:59.947Z,90.50
2018-05-13T16:53:27.593Z,90.20
2018-05-13T16:55:55.212Z,90.10
2018-05-13T16:58:22.861Z,90.50
2018-05-13T17:00:50.580Z,91.40
2018-05-13T17:03:18.250Z,90.70
2018-05-13T17:05:45.901Z,91.10
2018-05-13T17:08:13.590Z,90.20
2018-05-13T17:10:41.342Z,90.10
2018-05-13T17:13:09.212Z,89.30
2018-05-13T17:15:36.997Z,90.10
2018-05-13T17:18:04.611Z,90.10
2018-05-13T17:20:32.269Z,90.00
2018-05-13T17:22:59.881Z,90.20
2018-05-13T17:25:27.529Z,89.10
2018-05-13T17:27:55.150Z,90.20
2018-05-13T17:30:22.841Z,89.40
2018-05-13T17:32:50.475Z,89.90
2018-05-13T17:35:18.904Z,90.10
2018-05-13T17:37:46.525Z,89.90
2018-05-13T17:40:14.240Z,90.00
2018-05-13T17:42:41.929Z,89.50
2018-05-13T17:45:09.574Z,88.00
2018-05-13T17:47:37.185Z,87.40
2018-05-13T17:50:04.948Z,89.40
2018-05-13T17:52:32.564Z,88.40
2018-05-13T17:55:00.184Z,88.90
2018-05-13T17:57:27.945Z,86.70
2018-05-13T17:59:55.486Z,87.20
2018-05-13T18:02:23.924Z,89.70
2018-05-13T18:04:51.555Z,89.80
2018-05-13T18:07:19.991Z,88.30
2018-05-13T18:09:47.658Z,88.30
2018-05-13T18:12:15.455Z,87.10
2018-05-13T18:14:43.078Z,84.60
2018-05-13T18:17:11.500Z,84.00
2018-05-13T18:19:39.117Z,84.00
2018-05-13T18:22:06.756Z,85.80
2018-05-13T18:24:34.428Z,89.30
2018-05-13T18:27:02.087Z,89.30
2018-05-13T18:29:29.711Z,90.20
2018-05-13T18:31:57.368Z,88.40
2018-05-13T18:34:25.000Z,88.90
2018-05-13T18:36:53.426Z,88.30
2018-05-13T18:39:21.101Z,87.80
2018-05-13T18:41:48.783Z,88.00
2018-05-13T18:44:16.865Z,86.00
2018-05-13T18:46:44.500Z,83.80
2018-05-13T18:49:12.921Z,87.50
2018-05-13T18:51:40.541Z,87.40
2018-05-13T18:54:08.400Z,86.50
2018-05-13T18:56:36.028Z,84.60
2018-05-13T18:59:03.899Z,85.80
2018-05-13T19:01:31.517Z,85.80
2018-05-13T19:03:59.174Z,86.40
2018-05-13T19:06:26.850Z,84.70
2018-05-13T19:08:54.495Z,84.10
2018-05-13T19:11:22.884Z,85.20
2018-05-13T19:13:50.550Z,85.20
2018-05-13T19:16:18.920Z,86.20
2018-05-13T19:18:46.582Z,86.10
2018-05-13T19:21:14.205Z,85.30
2018-05-13T19:23:41.903Z,85.80
2018-05-13T19:26:09.509Z,86.80
2018-05-13T19:28:37.160Z,85.90
2018-05-13T19:31:04.800Z,85.50
2018-05-13T19:33:32.410Z,84.30
2018-05-13T19:36:00.056Z,84.80
2018-05-13T19:38:27.698Z,83.90
2018-05-13T19:40:56.104Z,84.80
2018-05-13T19:43:23.971Z,84.90
2018-05-13T19:45:51.682Z,83.80
2018-05-13T19:48:19.287Z,85.60
2018-05-13T19:50:46.931Z,84.70
2018-05-13T19:53:14.548Z,85.00
2018-05-13T19:55:42.209Z,84.30
2018-05-13T19:58:09.833Z,85.00
2018-05-13T20:00:37.481Z,84.30
2018-05-13T20:03:05.921Z,82.80
2018-05-13T20:05:33.577Z,82.80
2018-05-13T20:08:01.193Z,83.90
2018-05-13T20:10:28.840Z,83.70
2018-05-13T20:12:56.447Z,83.80
2018-05-13T20:15:24.113Z,82.80
2018-05-13T20:17:52.565Z,82.20
2018-05-13T20:20:20.212Z,82.10
2018-05-13T20:22:59.825Z,82.80
2018-05-13T20:25:27.476Z,83.10
2018-05-13T20:27:55.091Z,83.50
2018-05-13T20:30:22.843Z,84.80
2018-05-13T20:32:50.483Z,83.90
2018-05-13T20:35:18.088Z,81.70
2018-05-13T20:37:45.759Z,81.00
2018-05-13T20:40:13.384Z,80.80
2018-05-13T20:42:41.032Z,79.70
2018-05-13T20:45:09.409Z,80.80
2018-05-13T20:47:37.055Z,80.30
2018-05-13T20:50:04.668Z,80.80
2018-05-13T20:52:33.080Z,82.60
2018-05-13T20:55:00.705Z,82.10
2018-05-13T20:57:28.355Z,81.30
2018-05-13T20:59:55.961Z,81.20
2018-05-13T21:02:23.696Z,83.00
2018-05-13T21:04:51.313Z,82.70
2018-05-13T21:07:18.987Z,82.30
2018-05-13T21:09:46.597Z,81.40
2018-05-13T21:12:14.316Z,82.30
2018-05-13T21:14:41.971Z,86.10
2018-05-13T21:17:09.606Z,84.20
2018-05-13T21:19:38.009Z,82.00
2018-05-13T21:22:05.612Z,82.00
2018-05-13T21:24:33.274Z,81.90
2018-05-13T21:27:00.904Z,83.40
2018-05-13T21:29:28.554Z,82.70
2018-05-13T21:31:56.171Z,82.80
2018-05-13T21:34:23.827Z,81.70
2018-05-13T21:36:51.434Z,80.50
2018-05-13T21:39:19.084Z,80.40
2018-05-13T21:41:47.468Z,81.40
2018-05-13T21:44:15.881Z,81.30
2018-05-13T21:46:43.537Z,81.30
2018-05-13T21:49:11.180Z,82.10
2018-05-13T21:51:40.359Z,81.10
2018-05-13T21:54:07.998Z,81.00
2018-05-13T21:56:35.708Z,80.40
2018-05-13T21:59:03.349Z,80.60
2018-05-13T22:01:31.057Z,80.80
2018-05-13T22:03:58.696Z,80.40
2018-05-13T22:06:26.301Z,81.40
2018-05-13T22:08:53.944Z,81.90
2018-05-13T22:11:21.565Z,82.10
2018-05-13T22:13:49.229Z,80.80
2018-05-13T22:16:16.986Z,81.50
2018-05-13T22:18:44.593Z,82.10
2018-05-13T22:21:12.240Z,81.00
2018-05-13T22:23:39.856Z,80.20
2018-05-13T22:26:07.491Z,83.50
2018-05-13T22:28:35.100Z,87.60
2018-05-13T22:31:03.517Z,85.80
2018-05-13T22:33:31.124Z,85.70
2018-05-13T22:35:58.786Z,88.40
2018-05-13T22:38:26.392Z,89.00
2018-05-13T22:40:54.039Z,90.30
2018-05-13T22:43:21.660Z,90.10
2018-05-13T22:45:49.320Z,91.50
2018-05-13T22:48:16.942Z,91.50
2018-05-13T22:50:44.584Z,91.20
2018-05-13T22:53:12.952Z,91.20
2018-05-13T22:55:40.600Z,91.20
2018-05-13T22:58:08.204Z,90.60
2018-05-13T23:00:35.858Z,90.40
2018-05-13T23:03:03.466Z,89.70
2018-05-13T23:05:31.921Z,91.00
2018-05-13T23:07:59.528Z,91.00
2018-05-13T23:10:27.904Z,90.60
2018-05-13T23:12:55.556Z,90.70
2018-05-13T23:15:23.168Z,90.80
2018-05-13T23:17:51.584Z,90.90
2018-05-13T23:20:19.270Z,90.90
2018-05-13T23:22:46.917Z,91.40
2018-05-13T23:25:14.538Z,90.80
2018-05-13T23:27:42.204Z,91.80
2018-05-13T23:30:09.820Z,91.00
2018-05-13T23:32:38.224Z,92.40
2018-05-13T23:35:06.601Z,93.70
2018-05-13T23:37:35.016Z,93.30
2018-05-13T23:40:02.616Z,93.20
2018-05-13T23:42:30.254Z,93.30
2018-05-13T23:44:57.868Z,93.70
2018-05-13T23:47:25.505Z,93.10
2018-05-13T23:49:53.216Z,93.10
2018-05-13T23:52:20.864Z,92.30
2018-05-13T23:54:48.549Z,92.10
2018-05-13T23:57:16.221Z,92.10
2018-05-13T23:59:43.895Z,92.50
